sensor_id;sensor_type;location;lat;lon;timestamp;pressure;altitude;pressure_sealevel;temperature;humidity
58295;BME280;45705;55.592;37.460;2022-08-16T00:01:11;99716.84;;;20.63;55.26
58295;BME280;45705;55.592;37.460;2022-08-16T00:03:36;99723.97;;;20.64;54.77
58295;BME280;45705;55.592;37.460;2022-08-16T00:06:02;99727.25;;;20.70;54.59
58295;BME280;45705;55.592;37.460;2022-08-16T00:08:28;99721.28;;;20.68;54.59
58295;BME280;45705;55.592;37.460;2022-08-16T00:10:54;99721.59;;;20.63;55.19
58295;BME280;45705;55.592;37.460;2022-08-16T00:13:20;99720.69;;;20.59;54.82
58295;BME280;45705;55.592;37.460;2022-08-16T00:15:47;99723.09;;;20.60;54.80
58295;BME280;45705;55.592;37.460;2022-08-16T00:18:15;99728.00;;;20.67;54.02
58295;BME280;45705;55.592;37.460;2022-08-16T00:20:43;99721.28;;;20.68;54.63
58295;BME280;45705;55.592;37.460;2022-08-16T00:23:10;99719.69;;;20.67;53.54
58295;BME280;45705;55.592;37.460;2022-08-16T00:25:36;99726.38;;;20.66;53.53
58295;BME280;45705;55.592;37.460;2022-08-16T00:28:03;99723.16;;;20.64;53.80
58295;BME280;45705;55.592;37.460;2022-08-16T00:30:30;99719.25;;;20.65;53.05
58295;BME280;45705;55.592;37.460;2022-08-16T00:32:57;99721.59;;;20.63;53.32
58295;BME280;45705;55.592;37.460;2022-08-16T00:35:26;99717.56;;;20.60;53.40
58295;BME280;45705;55.592;37.460;2022-08-16T00:37:52;99717.09;;;20.58;53.54
58295;BME280;45705;55.592;37.460;2022-08-16T00:40:24;99720.53;;;20.52;53.88
58295;BME280;45705;55.592;37.460;2022-08-16T00:42:50;99723.72;;;20.54;53.86
58295;BME280;45705;55.592;37.460;2022-08-16T00:48:04;99727.50;;;20.45;54.45
58295;BME280;45705;55.592;37.460;2022-08-16T00:50:32;99722.69;;;20.42;54.28
58295;BME280;45705;55.592;37.460;2022-08-16T00:52:58;99718.69;;;20.40;54.34
58295;BME280;45705;55.592;37.460;2022-08-16T00:55:24;99721.38;;;20.36;54.88
58295;BME280;45705;55.592;37.460;2022-08-16T00:57:54;99724.03;;;20.33;54.82
58295;BME280;45705;55.592;37.460;2022-08-16T01:00:21;99735.00;;;20.29;54.91
58295;BME280;45705;55.592;37.460;2022-08-16T01:02:50;99728.16;;;20.23;55.59
58295;BME280;45705;55.592;37.460;2022-08-16T01:05:16;99733.25;;;20.21;55.84
58295;BME280;45705;55.592;37.460;2022-08-16T01:07:42;99727.28;;;20.19;55.55
58295;BME280;45705;55.592;37.460;2022-08-16T01:10:09;99733.34;;;20.09;56.18
58295;BME280;45705;55.592;37.460;2022-08-16T01:12:35;99733.19;;;20.01;56.82
58295;BME280;45705;55.592;37.460;2022-08-16T01:15:02;99735.94;;;20.01;56.78
58295;BME280;45705;55.592;37.460;2022-08-16T01:17:30;99741.28;;;19.94;57.50
58295;BME280;45705;55.592;37.460;2022-08-16T01:20:00;99737.38;;;19.95;57.25
58295;BME280;45705;55.592;37.460;2022-08-16T01:22:58;99730.25;;;19.94;57.02
58295;BME280;45705;55.592;37.460;2022-08-16T01:25:36;99734.88;;;19.90;56.92
58295;BME280;45705;55.592;37.460;2022-08-16T01:28:07;99739.94;;;19.88;57.08
58295;BME280;45705;55.592;37.460;2022-08-16T01:30:37;99729.91;;;19.80;57.39
58295;BME280;45705;55.592;37.460;2022-08-16T01:33:06;99738.53;;;19.78;57.24
58295;BME280;45705;55.592;37.460;2022-08-16T01:35:44;99746.94;;;19.70;57.61
58295;BME280;45705;55.592;37.460;2022-08-16T01:40:51;99736.63;;;19.66;57.36
58295;BME280;45705;55.592;37.460;2022-08-16T01:43:18;99739.81;;;19.68;57.36
58295;BME280;45705;55.592;37.460;2022-08-16T01:45:44;99745.34;;;19.68;57.55
58295;BME280;45705;55.592;37.460;2022-08-16T01:48:12;99747.22;;;19.64;57.39
58295;BME280;45705;55.592;37.460;2022-08-16T01:50:40;99743.28;;;19.65;57.52
58295;BME280;45705;55.592;37.460;2022-08-16T01:53:08;99745.16;;;19.61;57.91
58295;BME280;45705;55.592;37.460;2022-08-16T01:55:54;99735.00;;;19.65;56.88
58295;BME280;45705;55.592;37.460;2022-08-16T01:58:22;99749.09;;;19.60;57.88
58295;BME280;45705;55.592;37.460;2022-08-16T02:00:49;99745.00;;;19.54;58.01
58295;BME280;45705;55.592;37.460;2022-08-16T02:03:15;99749.59;;;19.50;58.26
58295;BME280;45705;55.592;37.460;2022-08-16T02:05:42;99741.59;;;19.45;58.30
58295;BME280;45705;55.592;37.460;2022-08-16T02:08:08;99754.72;;;19.36;58.60
58295;BME280;45705;55.592;37.460;2022-08-16T02:10:35;99750.84;;;19.37;59.28
58295;BME280;45705;55.592;37.460;2022-08-16T02:13:03;99744.38;;;19.33;59.78
58295;BME280;45705;55.592;37.460;2022-08-16T02:15:31;99746.69;;;19.31;59.55
58295;BME280;45705;55.592;37.460;2022-08-16T02:17:58;99755.25;;;19.25;59.45
58295;BME280;45705;55.592;37.460;2022-08-16T02:20:27;99748.72;;;19.18;59.91
58295;BME280;45705;55.592;37.460;2022-08-16T02:22:54;99742.31;;;19.14;60.25
58295;BME280;45705;55.592;37.460;2022-08-16T02:25:21;99747.72;;;19.10;60.34
58295;BME280;45705;55.592;37.460;2022-08-16T02:27:47;99745.44;;;19.12;60.17
58295;BME280;45705;55.592;37.460;2022-08-16T02:30:18;99747.72;;;19.10;60.52
58295;BME280;45705;55.592;37.460;2022-08-16T02:32:46;99746.84;;;19.06;60.73
58295;BME280;45705;55.592;37.460;2022-08-16T02:35:12;99747.72;;;19.10;60.29
58295;BME280;45705;55.592;37.460;2022-08-16T02:37:39;99747.19;;;19.04;60.85
58295;BME280;45705;55.592;37.460;2022-08-16T02:40:05;99750.72;;;19.05;60.69
58295;BME280;45705;55.592;37.460;2022-08-16T02:42:31;99742.91;;;19.07;60.22
58295;BME280;45705;55.592;37.460;2022-08-16T02:44:57;99744.22;;;18.97;60.38
58295;BME280;45705;55.592;37.460;2022-08-16T02:47:23;99748.88;;;19.09;60.58
58295;BME280;45705;55.592;37.460;2022-08-16T02:49:49;99753.94;;;19.07;60.74
58295;BME280;45705;55.592;37.460;2022-08-16T02:52:15;99751.91;;;19.04;60.90
58295;BME280;45705;55.592;37.460;2022-08-16T02:54:42;99751.19;;;19.07;60.87
58295;BME280;45705;55.592;37.460;2022-08-16T02:57:08;99755.56;;;19.08;60.62
58295;BME280;45705;55.592;37.460;2022-08-16T02:59:34;99755.56;;;19.08;60.92
58295;BME280;45705;55.592;37.460;2022-08-16T03:02:00;99758.03;;;19.13;60.67
58295;BME280;45705;55.592;37.460;2022-08-16T03:04:28;99760.44;;;19.15;60.41
58295;BME280;45705;55.592;37.460;2022-08-16T03:06:55;99758.00;;;19.25;60.97
58295;BME280;45705;55.592;37.460;2022-08-16T03:09:33;99765.97;;;19.15;60.43
58295;BME280;45705;55.592;37.460;2022-08-16T03:12:00;99756.16;;;19.30;60.27
58295;BME280;45705;55.592;37.460;2022-08-16T03:14:26;99750.72;;;19.33;60.05
58295;BME280;45705;55.592;37.460;2022-08-16T03:16:56;99765.25;;;19.46;59.47
58295;BME280;45705;55.592;37.460;2022-08-16T03:19:21;99764.75;;;19.56;59.41
58295;BME280;45705;55.592;37.460;2022-08-16T03:21:48;99767.22;;;19.61;59.20
58295;BME280;45705;55.592;37.460;2022-08-16T03:24:14;99767.22;;;19.61;58.79
58295;BME280;45705;55.592;37.460;2022-08-16T03:26:39;99770.13;;;19.81;58.56
58295;BME280;45705;55.592;37.460;2022-08-16T03:29:05;99758.31;;;20.63;55.94
58295;BME280;45705;55.592;37.460;2022-08-16T03:31:31;99757.63;;;22.40;50.90
58295;BME280;45705;55.592;37.460;2022-08-16T03:33:57;99757.09;;;22.88;48.68
58295;BME280;45705;55.592;37.460;2022-08-16T03:36:23;99751.59;;;23.59;46.80
58295;BME280;45705;55.592;37.460;2022-08-16T03:38:54;99758.28;;;24.00;45.96
58295;BME280;45705;55.592;37.460;2022-08-16T03:41:20;99756.94;;;24.27;45.20
58295;BME280;45705;55.592;37.460;2022-08-16T03:43:48;99749.31;;;24.80;43.59
58295;BME280;45705;55.592;37.460;2022-08-16T03:46:16;99755.13;;;25.44;42.09
58295;BME280;45705;55.592;37.460;2022-08-16T03:48:45;99757.09;;;25.33;41.60
58295;BME280;45705;55.592;37.460;2022-08-16T03:51:16;99763.75;;;25.10;41.98
58295;BME280;45705;55.592;37.460;2022-08-16T03:53:48;99761.53;;;25.73;41.20
58295;BME280;45705;55.592;37.460;2022-08-16T03:56:14;99767.41;;;25.29;41.75
58295;BME280;45705;55.592;37.460;2022-08-16T03:58:40;99760.69;;;25.44;41.70
58295;BME280;45705;55.592;37.460;2022-08-16T04:01:07;99758.41;;;26.04;40.33
58295;BME280;45705;55.592;37.460;2022-08-16T04:03:33;99762.75;;;26.33;39.51
58295;BME280;45705;55.592;37.460;2022-08-16T04:05:59;99759.97;;;26.33;39.68
58295;BME280;45705;55.592;37.460;2022-08-16T04:08:26;99759.03;;;26.94;38.25
58295;BME280;45705;55.592;37.460;2022-08-16T04:10:55;99762.19;;;27.03;37.55
58295;BME280;45705;55.592;37.460;2022-08-16T04:13:23;99756.47;;;27.36;37.19
58295;BME280;45705;55.592;37.460;2022-08-16T04:15:50;99764.19;;;27.73;36.61
58295;BME280;45705;55.592;37.460;2022-08-16T04:18:21;99765.91;;;27.53;37.53
58295;BME280;45705;55.592;37.460;2022-08-16T04:20:50;99765.16;;;27.48;37.14
58295;BME280;45705;55.592;37.460;2022-08-16T04:23:20;99758.41;;;28.02;35.96
58295;BME280;45705;55.592;37.460;2022-08-16T04:25:46;99762.22;;;28.22;35.89
58295;BME280;45705;55.592;37.460;2022-08-16T04:28:12;99762.94;;;27.81;36.42
58295;BME280;45705;55.592;37.460;2022-08-16T04:30:39;99759.19;;;28.06;36.05
58295;BME280;45705;55.592;37.460;2022-08-16T04:33:05;99765.84;;;27.67;36.35
58295;BME280;45705;55.592;37.460;2022-08-16T04:35:34;99765.91;;;28.57;35.00
58295;BME280;45705;55.592;37.460;2022-08-16T04:38:02;99768.19;;;28.70;34.68
58295;BME280;45705;55.592;37.460;2022-08-16T04:40:34;99761.63;;;28.83;34.98
58295;BME280;45705;55.592;37.460;2022-08-16T04:43:01;99767.19;;;28.87;34.15
58295;BME280;45705;55.592;37.460;2022-08-16T04:45:29;99762.81;;;29.48;33.36
58295;BME280;45705;55.592;37.460;2022-08-16T04:47:55;99758.75;;;28.49;35.19
58295;BME280;45705;55.592;37.460;2022-08-16T04:50:24;99769.16;;;29.21;33.84
58295;BME280;45705;55.592;37.460;2022-08-16T04:53:09;99763.44;;;28.63;34.48
58295;BME280;45705;55.592;37.460;2022-08-16T04:55:39;99762.63;;;29.31;33.81
58295;BME280;45705;55.592;37.460;2022-08-16T04:58:06;99765.84;;;29.88;32.13
58295;BME280;45705;55.592;37.460;2022-08-16T05:00:33;99759.72;;;29.38;33.13
58295;BME280;45705;55.592;37.460;2022-08-16T05:03:10;99768.72;;;29.53;33.03
58295;BME280;45705;55.592;37.460;2022-08-16T05:05:46;99759.91;;;29.55;33.42
58295;BME280;45705;55.592;37.460;2022-08-16T05:08:14;99775.31;;;29.39;33.14
58295;BME280;45705;55.592;37.460;2022-08-16T05:10:44;99764.34;;;30.50;31.62
58295;BME280;45705;55.592;37.460;2022-08-16T05:13:09;99761.97;;;30.92;31.17
58295;BME280;45705;55.592;37.460;2022-08-16T05:15:36;99761.44;;;29.87;32.10
58295;BME280;45705;55.592;37.460;2022-08-16T05:18:02;99754.72;;;29.80;32.66
58295;BME280;45705;55.592;37.460;2022-08-16T05:20:33;99755.38;;;30.79;31.62
58295;BME280;45705;55.592;37.460;2022-08-16T05:22:59;99760.41;;;30.48;31.04
58295;BME280;45705;55.592;37.460;2022-08-16T05:25:25;99759.69;;;30.64;30.97
58295;BME280;45705;55.592;37.460;2022-08-16T05:27:52;99768.03;;;30.87;31.13
58295;BME280;45705;55.592;37.460;2022-08-16T05:30:22;99761.00;;;30.79;31.27
58295;BME280;45705;55.592;37.460;2022-08-16T05:32:48;99759.06;;;30.96;31.21
58295;BME280;45705;55.592;37.460;2022-08-16T05:35:15;99761.63;;;31.27;30.38
58295;BME280;45705;55.592;37.460;2022-08-16T05:38:05;99764.00;;;31.28;30.00
58295;BME280;45705;55.592;37.460;2022-08-16T05:40:34;99772.78;;;31.30;30.00
58295;BME280;45705;55.592;37.460;2022-08-16T05:43:00;99757.78;;;31.00;30.64
58295;BME280;45705;55.592;37.460;2022-08-16T05:45:26;99750.84;;;31.42;30.10
58295;BME280;45705;55.592;37.460;2022-08-16T05:47:56;99744.44;;;31.41;30.03
58295;BME280;45705;55.592;37.460;2022-08-16T05:50:22;99758.81;;;31.47;29.84
58295;BME280;45705;55.592;37.460;2022-08-16T05:52:48;99756.88;;;31.60;29.87
58295;BME280;45705;55.592;37.460;2022-08-16T05:55:16;99750.06;;;31.05;31.11
58295;BME280;45705;55.592;37.460;2022-08-16T05:57:43;99762.31;;;31.67;30.02
58295;BME280;45705;55.592;37.460;2022-08-16T06:00:09;99768.19;;;31.20;30.09
58295;BME280;45705;55.592;37.460;2022-08-16T06:02:40;99771.34;;;30.82;31.21
58295;BME280;45705;55.592;37.460;2022-08-16T06:05:27;99765.63;;;30.89;31.39
58295;BME280;45705;55.592;37.460;2022-08-16T06:07:54;99763.06;;;31.88;30.35
58295;BME280;45705;55.592;37.460;2022-08-16T06:10:26;99760.09;;;30.42;31.73
58295;BME280;45705;55.592;37.460;2022-08-16T06:12:52;99768.91;;;31.24;30.74
58295;BME280;45705;55.592;37.460;2022-08-16T06:15:19;99773.16;;;32.18;29.48
58295;BME280;45705;55.592;37.460;2022-08-16T06:17:46;99757.34;;;31.38;30.47
58295;BME280;45705;55.592;37.460;2022-08-16T06:20:23;99771.03;;;31.56;29.66
58295;BME280;45705;55.592;37.460;2022-08-16T06:22:54;99766.47;;;31.63;30.29
58295;BME280;45705;55.592;37.460;2022-08-16T06:25:26;99763.56;;;31.83;28.37
58295;BME280;45705;55.592;37.460;2022-08-16T06:27:54;99767.47;;;31.16;29.89
58295;BME280;45705;55.592;37.460;2022-08-16T06:30:20;99768.34;;;32.18;29.19
58295;BME280;45705;55.592;37.460;2022-08-16T06:32:48;99773.22;;;31.98;28.93
58295;BME280;45705;55.592;37.460;2022-08-16T06:35:14;99773.50;;;31.54;29.55
58295;BME280;45705;55.592;37.460;2022-08-16T06:37:42;99771.25;;;30.89;30.57
58295;BME280;45705;55.592;37.460;2022-08-16T06:40:10;99761.81;;;31.89;29.49
58295;BME280;45705;55.592;37.460;2022-08-16T06:42:41;99767.94;;;31.67;28.73
58295;BME280;45705;55.592;37.460;2022-08-16T06:45:18;99767.50;;;31.85;28.69
58295;BME280;45705;55.592;37.460;2022-08-16T06:47:49;99768.91;;;31.61;29.72
58295;BME280;45705;55.592;37.460;2022-08-16T06:50:15;99768.69;;;31.88;29.27
58295;BME280;45705;55.592;37.460;2022-08-16T06:52:45;99774.81;;;31.83;29.11
58295;BME280;45705;55.592;37.460;2022-08-16T06:55:13;99777.03;;;32.08;28.83
58295;BME280;45705;55.592;37.460;2022-08-16T06:57:44;99773.13;;;31.85;28.82
58295;BME280;45705;55.592;37.460;2022-08-16T07:00:12;99777.78;;;31.59;29.97
58295;BME280;45705;55.592;37.460;2022-08-16T07:02:46;99764.38;;;31.10;30.55
58295;BME280;45705;55.592;37.460;2022-08-16T07:05:13;99776.00;;;30.92;30.74
58295;BME280;45705;55.592;37.460;2022-08-16T07:07:44;99772.22;;;31.19;30.69
58295;BME280;45705;55.592;37.460;2022-08-16T07:10:10;99765.06;;;30.34;31.59
58295;BME280;45705;55.592;37.460;2022-08-16T07:12:37;99758.44;;;31.45;30.33
58295;BME280;45705;55.592;37.460;2022-08-16T07:15:03;99761.69;;;31.23;30.32
58295;BME280;45705;55.592;37.460;2022-08-16T07:17:30;99761.38;;;30.14;30.42
58295;BME280;45705;55.592;37.460;2022-08-16T07:19:57;99767.50;;;30.32;29.80
58295;BME280;45705;55.592;37.460;2022-08-16T07:22:29;99767.78;;;30.38;30.08
58295;BME280;45705;55.592;37.460;2022-08-16T07:24:54;99779.44;;;29.86;30.45
58295;BME280;45705;55.592;37.460;2022-08-16T07:27:22;99775.56;;;29.79;30.94
58295;BME280;45705;55.592;37.460;2022-08-16T07:29:48;99769.84;;;30.34;30.81
58295;BME280;45705;55.592;37.460;2022-08-16T07:32:14;99770.63;;;30.78;29.57
58295;BME280;45705;55.592;37.460;2022-08-16T07:34:40;99762.63;;;30.56;30.57
58295;BME280;45705;55.592;37.460;2022-08-16T07:37:08;99759.34;;;29.91;31.16
58295;BME280;45705;55.592;37.460;2022-08-16T07:40:06;99770.94;;;30.16;31.17
58295;BME280;45705;55.592;37.460;2022-08-16T07:42:32;99764.97;;;29.36;31.59
58295;BME280;45705;55.592;37.460;2022-08-16T07:44:57;99776.22;;;28.98;32.78
58295;BME280;45705;55.592;37.460;2022-08-16T07:47:24;99760.66;;;28.21;34.29
58295;BME280;45705;55.592;37.460;2022-08-16T07:49:50;99768.34;;;28.06;34.40
58295;BME280;45705;55.592;37.460;2022-08-16T07:52:16;99779.97;;;27.42;35.83
58295;BME280;45705;55.592;37.460;2022-08-16T07:54:42;99779.56;;;27.43;36.03
58295;BME280;45705;55.592;37.460;2022-08-16T07:57:10;99776.59;;;26.91;36.47
58295;BME280;45705;55.592;37.460;2022-08-16T07:59:37;99783.75;;;26.92;36.83
58295;BME280;45705;55.592;37.460;2022-08-16T08:02:03;99780.97;;;26.85;37.16
58295;BME280;45705;55.592;37.460;2022-08-16T08:04:30;99765.81;;;26.93;37.36
58295;BME280;45705;55.592;37.460;2022-08-16T08:06:58;99774.16;;;27.00;37.38
58295;BME280;45705;55.592;37.460;2022-08-16T08:09:24;99765.75;;;27.04;37.43
58295;BME280;45705;55.592;37.460;2022-08-16T08:11:51;99772.22;;;26.83;36.62
58295;BME280;45705;55.592;37.460;2022-08-16T08:14:17;99771.75;;;27.02;37.05
58295;BME280;45705;55.592;37.460;2022-08-16T08:16:46;99771.81;;;26.88;36.63
58295;BME280;45705;55.592;37.460;2022-08-16T08:19:26;99789.84;;;26.29;37.39
58295;BME280;45705;55.592;37.460;2022-08-16T08:21:52;99775.09;;;26.40;38.43
58295;BME280;45705;55.592;37.460;2022-08-16T08:24:22;99767.94;;;26.17;38.14
58295;BME280;45705;55.592;37.460;2022-08-16T08:26:49;99763.53;;;26.30;37.37
58295;BME280;45705;55.592;37.460;2022-08-16T08:29:17;99773.50;;;26.17;37.79
58295;BME280;45705;55.592;37.460;2022-08-16T08:31:45;99755.97;;;26.35;37.43
58295;BME280;45705;55.592;37.460;2022-08-16T08:34:12;99758.34;;;26.47;37.52
58295;BME280;45705;55.592;37.460;2022-08-16T08:36:38;99763.94;;;26.32;37.51
58295;BME280;45705;55.592;37.460;2022-08-16T08:39:15;99764.75;;;26.01;38.22
58295;BME280;45705;55.592;37.460;2022-08-16T08:41:42;99759.97;;;26.05;38.51
58295;BME280;45705;55.592;37.460;2022-08-16T08:44:09;99752.81;;;26.11;37.72
58295;BME280;45705;55.592;37.460;2022-08-16T08:46:35;99758.41;;;26.04;38.09
58295;BME280;45705;55.592;37.460;2022-08-16T08:49:02;99746.44;;;26.00;38.49
58295;BME280;45705;55.592;37.460;2022-08-16T08:51:35;99750.38;;;26.42;38.03
58295;BME280;45705;55.592;37.460;2022-08-16T08:54:05;99748.81;;;26.33;38.32
58295;BME280;45705;55.592;37.460;2022-08-16T08:56:34;99745.53;;;26.75;38.25
58295;BME280;45705;55.592;37.460;2022-08-16T08:59:07;99761.53;;;26.42;38.36
58295;BME280;45705;55.592;37.460;2022-08-16T09:01:38;99749.56;;;26.63;38.22
58295;BME280;45705;55.592;37.460;2022-08-16T09:04:06;99759.09;;;26.69;38.13
58295;BME280;45705;55.592;37.460;2022-08-16T09:06:35;99765.94;;;26.43;38.62
58295;BME280;45705;55.592;37.460;2022-08-16T09:09:03;99756.31;;;26.65;38.21
58295;BME280;45705;55.592;37.460;2022-08-16T09:11:30;99766.34;;;26.30;38.25
58295;BME280;45705;55.592;37.460;2022-08-16T09:13:56;99761.53;;;26.35;37.82
58295;BME280;45705;55.592;37.460;2022-08-16T09:16:22;99762.38;;;26.03;38.29
58295;BME280;45705;55.592;37.460;2022-08-16T09:18:49;99755.22;;;26.16;38.20
58295;BME280;45705;55.592;37.460;2022-08-16T09:21:15;99757.97;;;26.45;38.49
58295;BME280;45705;55.592;37.460;2022-08-16T09:23:41;99765.56;;;26.19;37.71
58295;BME280;45705;55.592;37.460;2022-08-16T09:26:12;99747.25;;;26.25;38.54
58295;BME280;45705;55.592;37.460;2022-08-16T09:28:41;99768.75;;;26.21;37.81
58295;BME280;45705;55.592;37.460;2022-08-16T09:31:15;99759.19;;;26.37;38.34
58295;BME280;45705;55.592;37.460;2022-08-16T09:33:42;99762.34;;;26.39;37.69
58295;BME280;45705;55.592;37.460;2022-08-16T09:36:10;99750.38;;;26.35;37.47
58295;BME280;45705;55.592;37.460;2022-08-16T09:38:36;99759.19;;;26.37;37.76
58295;BME280;45705;55.592;37.460;2022-08-16T09:41:07;99757.56;;;26.36;37.62
58295;BME280;45705;55.592;37.460;2022-08-16T09:43:33;99756.75;;;26.46;37.92
58295;BME280;45705;55.592;37.460;2022-08-16T09:46:01;99748.81;;;26.37;38.30
58295;BME280;45705;55.592;37.460;2022-08-16T09:48:27;99754.34;;;26.44;38.62
58295;BME280;45705;55.592;37.460;2022-08-16T09:50:53;99755.13;;;26.52;38.35
58295;BME280;45705;55.592;37.460;2022-08-16T09:53:21;99760.72;;;26.59;37.99
58295;BME280;45705;55.592;37.460;2022-08-16T09:55:50;99739.22;;;26.49;38.25
58295;BME280;45705;55.592;37.460;2022-08-16T09:58:19;99758.69;;;26.78;38.00
58295;BME280;45705;55.592;37.460;2022-08-16T10:00:45;99744.78;;;26.52;37.81
58295;BME280;45705;55.592;37.460;2022-08-16T10:03:11;99741.63;;;26.47;36.74
58295;BME280;45705;55.592;37.460;2022-08-16T10:05:37;99752.78;;;26.54;37.02
58295;BME280;45705;55.592;37.460;2022-08-16T10:08:04;99758.78;;;26.20;36.79
58295;BME280;45705;55.592;37.460;2022-08-16T10:10:33;99754.38;;;26.33;36.34
58295;BME280;45705;55.592;37.460;2022-08-16T10:12:59;99752.00;;;26.39;36.05
58295;BME280;45705;55.592;37.460;2022-08-16T10:15:44;99751.16;;;26.42;36.14
58295;BME280;45705;55.592;37.460;2022-08-16T10:18:11;99744.81;;;26.38;35.07
58295;BME280;45705;55.592;37.460;2022-08-16T10:20:41;99767.50;;;26.51;34.93
58295;BME280;45705;55.592;37.460;2022-08-16T10:23:09;99753.97;;;26.46;35.66
58295;BME280;45705;55.592;37.460;2022-08-16T10:25:42;99756.78;;;26.39;35.54
58295;BME280;45705;55.592;37.460;2022-08-16T10:28:09;99743.16;;;26.69;35.72
58295;BME280;45705;55.592;37.460;2022-08-16T10:30:36;99748.00;;;26.40;35.39
58295;BME280;45705;55.592;37.460;2022-08-16T10:33:03;99757.16;;;26.62;35.92
58295;BME280;45705;55.592;37.460;2022-08-16T10:35:30;99743.59;;;26.61;36.22
58295;BME280;45705;55.592;37.460;2022-08-16T10:37:56;99737.56;;;26.80;36.12
58295;BME280;45705;55.592;37.460;2022-08-16T10:40:22;99728.69;;;27.03;35.92
58295;BME280;45705;55.592;37.460;2022-08-16T10:42:49;99730.38;;;26.79;36.04
58295;BME280;45705;55.592;37.460;2022-08-16T10:45:16;99736.75;;;26.83;36.72
58295;BME280;45705;55.592;37.460;2022-08-16T10:47:42;99748.78;;;26.62;36.52
58295;BME280;45705;55.592;37.460;2022-08-16T10:50:08;99742.34;;;26.80;36.42
58295;BME280;45705;55.592;37.460;2022-08-16T10:52:34;99736.78;;;26.73;36.95
58295;BME280;45705;55.592;37.460;2022-08-16T10:55:00;99734.38;;;26.75;36.49
58295;BME280;45705;55.592;37.460;2022-08-16T10:57:27;99734.38;;;26.75;36.47
58295;BME280;45705;55.592;37.460;2022-08-16T10:59:53;99725.22;;;26.78;37.08
58295;BME280;45705;55.592;37.460;2022-08-16T11:02:21;99708.91;;;26.73;36.92
58295;BME280;45705;55.592;37.460;2022-08-16T11:04:49;99729.56;;;26.82;36.71
58295;BME280;45705;55.592;37.460;2022-08-16T11:07:14;99729.59;;;26.79;35.67
58295;BME280;45705;55.592;37.460;2022-08-16T11:09:40;99719.19;;;26.86;35.75
58295;BME280;45705;55.592;37.460;2022-08-16T11:12:06;99723.97;;;26.93;35.78
58295;BME280;45705;55.592;37.460;2022-08-16T11:14:33;99729.19;;;26.84;35.66
58295;BME280;45705;55.592;37.460;2022-08-16T11:17:01;99711.16;;;26.99;36.22
58295;BME280;45705;55.592;37.460;2022-08-16T11:19:28;99698.00;;;27.03;36.04
58295;BME280;45705;55.592;37.460;2022-08-16T11:21:54;99712.72;;;27.04;36.22
58295;BME280;45705;55.592;37.460;2022-08-16T11:24:21;99706.66;;;27.27;35.99
58295;BME280;45705;55.592;37.460;2022-08-16T11:26:47;99695.44;;;27.38;35.97
58295;BME280;45705;55.592;37.460;2022-08-16T11:29:15;99700.53;;;27.46;35.91
58295;BME280;45705;55.592;37.460;2022-08-16T11:31:41;99697.75;;;27.46;35.83
58295;BME280;45705;55.592;37.460;2022-08-16T11:34:07;99683.53;;;27.79;35.41
58295;BME280;45705;55.592;37.460;2022-08-16T11:36:34;99705.81;;;27.89;35.22
58295;BME280;45705;55.592;37.460;2022-08-16T11:39:01;99703.00;;;27.37;35.26
58295;BME280;45705;55.592;37.460;2022-08-16T11:41:27;99709.44;;;27.23;36.09
58295;BME280;45705;55.592;37.460;2022-08-16T11:43:53;99687.22;;;27.05;35.87
58295;BME280;45705;55.592;37.460;2022-08-16T11:46:19;99704.03;;;26.91;36.12
58295;BME280;45705;55.592;37.460;2022-08-16T11:48:45;99701.69;;;26.79;36.31
58295;BME280;45705;55.592;37.460;2022-08-16T11:51:12;99697.34;;;26.70;36.95
58295;BME280;45705;55.592;37.460;2022-08-16T11:53:38;99698.91;;;26.79;36.69
58295;BME280;45705;55.592;37.460;2022-08-16T11:56:04;99694.03;;;27.01;36.55
58295;BME280;45705;55.592;37.460;2022-08-16T11:58:30;99683.19;;;27.10;36.76
58295;BME280;45705;55.592;37.460;2022-08-16T12:00:57;99678.41;;;27.10;36.58
58295;BME280;45705;55.592;37.460;2022-08-16T12:03:26;99683.16;;;27.14;36.17
58295;BME280;45705;55.592;37.460;2022-08-16T12:05:52;99684.75;;;27.18;35.67
58295;BME280;45705;55.592;37.460;2022-08-16T12:08:19;99666.97;;;27.54;35.92
58295;BME280;45705;55.592;37.460;2022-08-16T12:10:45;99672.19;;;27.48;35.69
58295;BME280;45705;55.592;37.460;2022-08-16T12:13:12;99670.47;;;27.65;34.65
58295;BME280;45705;55.592;37.460;2022-08-16T12:15:39;99671.03;;;27.45;35.63
58295;BME280;45705;55.592;37.460;2022-08-16T12:18:06;99667.94;;;27.33;35.48
58295;BME280;45705;55.592;37.460;2022-08-16T12:20:39;99662.28;;;27.40;35.49
58295;BME280;45705;55.592;37.460;2022-08-16T12:23:06;99661.38;;;27.54;35.49
58295;BME280;45705;55.592;37.460;2022-08-16T12:25:33;99654.84;;;27.71;35.25
58295;BME280;45705;55.592;37.460;2022-08-16T12:27:59;99666.84;;;27.68;34.16
58295;BME280;45705;55.592;37.460;2022-08-16T12:30:28;99655.38;;;27.59;34.96
58295;BME280;45705;55.592;37.460;2022-08-16T12:32:56;99656.88;;;27.67;35.62
58295;BME280;45705;55.592;37.460;2022-08-16T12:35:24;99651.34;;;27.60;35.50
58295;BME280;45705;55.592;37.460;2022-08-16T12:37:51;99650.75;;;27.38;35.24
58295;BME280;45705;55.592;37.460;2022-08-16T12:40:23;99659.28;;;27.09;35.97
58295;BME280;45705;55.592;37.460;2022-08-16T12:42:51;99660.91;;;27.03;35.99
58295;BME280;45705;55.592;37.460;2022-08-16T12:45:20;99651.28;;;27.15;36.32
58295;BME280;45705;55.592;37.460;2022-08-16T12:47:46;99658.56;;;26.90;36.28
58295;BME280;45705;55.592;37.460;2022-08-16T12:50:33;99641.00;;;26.97;36.58
58295;BME280;45705;55.592;37.460;2022-08-16T12:52:59;99672.88;;;27.03;36.24
58295;BME280;45705;55.592;37.460;2022-08-16T12:55:25;99654.19;;;26.93;36.87
58295;BME280;45705;55.592;37.460;2022-08-16T12:57:52;99654.59;;;26.95;36.66
58295;BME280;45705;55.592;37.460;2022-08-16T13:00:19;99654.63;;;26.88;36.67